createdAt,value
2023-04-18T00:01:08.585Z,20.25
2023-04-18T00:03:37.407Z,19.60
2023-04-18T00:06:04.621Z,19.17
2023-04-18T00:08:31.097Z,19.33
2023-04-18T00:10:57.607Z,19.90
2023-04-18T00:13:24.171Z,18.95
2023-04-18T00:15:50.824Z,19.15
2023-04-18T00:18:17.378Z,18.73
2023-04-18T00:20:43.911Z,17.70
2023-04-18T00:23:11.530Z,17.55
2023-04-18T00:25:40.678Z,19.10
2023-04-18T00:28:07.182Z,17.55
2023-04-18T00:30:33.742Z,19.33
2023-04-18T00:33:00.442Z,18.27
2023-04-18T00:35:26.954Z,18.73
2023-04-18T00:37:53.436Z,17.02
2023-04-18T00:40:19.999Z,18.73
2023-04-18T00:42:46.493Z,17.65
2023-04-18T00:45:14.028Z,17.60
2023-04-18T00:47:40.529Z,17.38
2023-04-18T00:50:09.318Z,17.60
2023-04-18T00:52:36.258Z,17.85
2023-04-18T00:55:06.201Z,18.02
2023-04-18T00:57:33.269Z,18.92
2023-04-18T01:00:05.669Z,20.55
2023-04-18T01:02:33.806Z,19.23
2023-04-18T01:05:00.388Z,18.95
2023-04-18T01:07:27.123Z,18.00
2023-04-18T01:09:57.546Z,19.17
2023-04-18T01:12:24.081Z,18.33
2023-04-18T01:14:50.713Z,18.90
2023-04-18T01:17:18.191Z,16.65
2023-04-18T01:19:45.038Z,18.70
2023-04-18T01:22:13.987Z,17.20
2023-04-18T01:24:40.851Z,17.98
2023-04-18T01:27:12.196Z,17.85
2023-04-18T01:29:39.199Z,18.35
2023-04-18T01:32:06.476Z,17.60
2023-04-18T01:34:33.017Z,18.02
2023-04-18T01:36:59.519Z,18.77
2023-04-18T01:39:26.042Z,17.75
2023-04-18T01:41:52.544Z,17.50
2023-04-18T01:44:19.057Z,18.25
2023-04-18T01:46:46.006Z,18.13
2023-04-18T01:49:12.570Z,18.35
2023-04-18T01:51:39.266Z,16.75
2023-04-18T01:54:05.790Z,17.90
2023-04-18T01:56:32.276Z,17.35
2023-04-18T01:59:00.674Z,17.45
2023-04-18T02:01:27.861Z,17.27
2023-04-18T02:03:54.607Z,17.35
2023-04-18T02:06:21.382Z,16.80
2023-04-18T02:08:47.908Z,17.50
2023-04-18T02:11:14.401Z,17.60
2023-04-18T02:13:40.842Z,17.58
2023-04-18T02:16:11.939Z,18.15
2023-04-18T02:18:38.472Z,18.27
2023-04-18T02:21:06.128Z,18.90
2023-04-18T02:23:32.671Z,19.80
2023-04-18T02:25:59.117Z,18.63
2023-04-18T02:28:25.705Z,19.00
2023-04-18T02:30:52.183Z,19.85
2023-04-18T02:33:18.712Z,19.63
2023-04-18T02:35:45.173Z,18.73
2023-04-18T02:38:11.698Z,19.33
2023-04-18T02:40:38.152Z,18.45
2023-04-18T02:43:04.629Z,18.20
2023-04-18T02:45:31.093Z,17.48
2023-04-18T02:47:59.762Z,17.33
2023-04-18T02:50:26.231Z,18.23
2023-04-18T02:52:56.969Z,18.43
2023-04-18T02:55:29.383Z,17.70
2023-04-18T02:57:59.091Z,17.95
2023-04-18T03:00:44.025Z,17.33
2023-04-18T03:03:42.631Z,17.38
2023-04-18T03:06:32.088Z,17.17
2023-04-18T03:09:01.046Z,17.02
2023-04-18T03:11:28.551Z,17.42
2023-04-18T03:13:55.425Z,16.10
2023-04-18T03:16:24.548Z,17.33
2023-04-18T03:18:51.050Z,16.88
2023-04-18T03:21:18.606Z,16.48
2023-04-18T03:23:45.174Z,16.83
2023-04-18T03:26:11.808Z,17.15
2023-04-18T03:28:40.226Z,19.13
2023-04-18T03:31:07.432Z,16.98
2023-04-18T03:33:37.155Z,16.40
2023-04-18T03:36:08.757Z,17.80
2023-04-18T03:38:35.346Z,16.50
2023-04-18T03:41:02.686Z,16.85
2023-04-18T03:43:33.327Z,16.50
2023-04-18T03:45:59.992Z,17.73
2023-04-18T03:48:27.123Z,17.40
2023-04-18T03:50:54.767Z,17.08
2023-04-18T03:53:21.347Z,17.50
2023-04-18T03:55:48.253Z,17.52
2023-04-18T03:58:18.026Z,18.17
2023-04-18T04:00:45.560Z,18.48
2023-04-18T04:03:12.141Z,18.30
2023-04-18T04:05:39.840Z,18.67
2023-04-18T04:08:06.362Z,16.48
2023-04-18T04:10:33.937Z,18.98
2023-04-18T04:13:00.433Z,18.88
2023-04-18T04:15:28.284Z,19.58
2023-04-18T04:18:01.470Z,18.55
2023-04-18T04:20:28.560Z,19.13
2023-04-18T04:23:06.341Z,18.95
2023-04-18T04:25:34.821Z,19.83
2023-04-18T04:28:06.741Z,18.95
2023-04-18T04:30:40.073Z,18.10
2023-04-18T04:33:07.768Z,18.38
2023-04-18T04:35:34.288Z,20.33
2023-04-18T04:38:00.968Z,18.25
2023-04-18T04:40:33.930Z,19.38
2023-04-18T04:43:11.837Z,20.08
2023-04-18T04:45:41.778Z,20.42
2023-04-18T04:48:09.190Z,20.20
2023-04-18T04:50:40.935Z,19.17
2023-04-18T04:53:10.553Z,19.20
2023-04-18T04:55:37.562Z,19.27
2023-04-18T04:58:05.049Z,19.40
2023-04-18T05:00:50.145Z,19.30
2023-04-18T05:03:16.938Z,20.65
2023-04-18T05:05:44.833Z,18.85
2023-04-18T05:08:11.324Z,19.33
2023-04-18T05:10:37.789Z,20.95
2023-04-18T05:13:04.672Z,21.45
2023-04-18T05:15:31.590Z,19.27
2023-04-18T05:17:58.587Z,19.33
2023-04-18T05:20:25.416Z,19.75
2023-04-18T05:22:51.921Z,21.00
2023-04-18T05:25:18.713Z,20.88
2023-04-18T05:27:45.770Z,20.38
2023-04-18T05:30:12.425Z,21.65
2023-04-18T05:32:38.991Z,23.17
2023-04-18T05:35:07.018Z,20.48
2023-04-18T05:37:33.570Z,21.55
2023-04-18T05:40:00.888Z,21.85
2023-04-18T05:42:27.759Z,23.00
2023-04-18T05:44:54.202Z,19.60
2023-04-18T05:47:20.692Z,21.83
2023-04-18T05:49:47.163Z,22.55
2023-04-18T05:52:13.650Z,22.10
2023-04-18T05:54:40.084Z,23.15
2023-04-18T05:57:06.698Z,22.58
2023-04-18T05:59:33.141Z,21.55
2023-04-18T06:01:59.671Z,21.00
2023-04-18T06:04:26.274Z,22.08
2023-04-18T06:06:52.941Z,23.08
2023-04-18T06:09:19.436Z,20.35
2023-04-18T06:11:45.981Z,21.08
2023-04-18T06:14:12.721Z,20.85
2023-04-18T06:16:39.464Z,20.15
2023-04-18T06:19:06.079Z,21.60
2023-04-18T06:21:32.675Z,22.58
2023-04-18T06:23:59.173Z,21.02
2023-04-18T06:26:25.718Z,21.77
2023-04-18T06:28:52.406Z,20.17
2023-04-18T06:31:19.059Z,20.88
2023-04-18T06:33:45.622Z,21.00
2023-04-18T06:36:12.164Z,20.08
2023-04-18T06:38:38.795Z,21.00
2023-04-18T06:41:05.291Z,23.30
2023-04-18T06:43:33.181Z,21.67
2023-04-18T06:46:00.654Z,21.88
2023-04-18T06:48:27.140Z,20.92
2023-04-18T06:50:53.626Z,19.88
2023-04-18T06:53:20.134Z,22.10
2023-04-18T06:55:46.731Z,19.95
2023-04-18T06:58:13.389Z,22.35
2023-04-18T07:00:40.020Z,21.80
2023-04-18T07:03:07.633Z,19.90
2023-04-18T07:05:36.491Z,20.52
2023-04-18T07:08:03.259Z,20.13
2023-04-18T07:10:30.317Z,20.98
2023-04-18T07:12:56.919Z,20.60
2023-04-18T07:15:23.678Z,21.40
2023-04-18T07:17:50.226Z,19.90
2023-04-18T07:20:16.900Z,20.98
2023-04-18T07:22:43.418Z,19.50
2023-04-18T07:25:10.019Z,17.73
2023-04-18T07:27:37.112Z,19.17
2023-04-18T07:30:04.733Z,17.85
2023-04-18T07:32:31.235Z,18.65
2023-04-18T07:34:57.761Z,17.75
2023-04-18T07:37:24.324Z,17.08
2023-04-18T07:39:51.082Z,16.63
2023-04-18T07:42:17.686Z,17.30
2023-04-18T07:44:44.177Z,16.40
2023-04-18T07:47:10.800Z,16.42
2023-04-18T07:49:38.267Z,15.27
2023-04-18T07:52:05.206Z,15.85
2023-04-18T07:54:31.732Z,14.05
2023-04-18T07:56:59.112Z,15.15
2023-04-18T07:59:25.683Z,14.30
2023-04-18T08:01:52.152Z,13.75
2023-04-18T08:04:18.779Z,13.63
2023-04-18T08:06:45.447Z,13.20
2023-04-18T08:09:12.098Z,14.60
2023-04-18T08:11:38.795Z,12.95
2023-04-18T08:14:05.354Z,12.65
2023-04-18T08:16:31.848Z,11.75
2023-04-18T08:18:58.558Z,11.85
2023-04-18T08:21:25.051Z,10.52
2023-04-18T08:23:51.514Z,11.50
2023-04-18T08:26:18.013Z,11.55
2023-04-18T08:28:46.293Z,10.43
2023-04-18T08:31:14.151Z,9.60
2023-04-18T08:33:41.307Z,8.88
2023-04-18T08:36:08.164Z,7.60
2023-04-18T08:38:34.691Z,8.80
2023-04-18T08:41:01.190Z,8.10
2023-04-18T08:43:27.686Z,8.20
2023-04-18T08:45:58.968Z,7.80
2023-04-18T08:48:25.554Z,7.03
2023-04-18T08:50:57.000Z,7.38
2023-04-18T08:55:56.709Z,7.18
2023-04-18T08:58:23.897Z,7.40
2023-04-18T09:00:51.539Z,7.97
2023-04-18T09:03:43.703Z,7.20
2023-04-18T09:06:15.206Z,7.47
2023-04-18T09:11:29.783Z,7.40
2023-04-18T09:13:56.976Z,8.02
2023-04-18T09:16:23.600Z,7.78
2023-04-18T09:19:08.956Z,7.75
2023-04-18T09:21:38.460Z,7.00
2023-04-18T09:24:19.956Z,7.78
2023-04-18T09:26:47.390Z,7.45
2023-04-18T09:29:14.029Z,7.18
2023-04-18T09:32:00.069Z,6.55
2023-04-18T09:34:29.592Z,7.43
2023-04-18T09:37:10.613Z,7.35
2023-04-18T09:39:38.740Z,6.70
2023-04-18T09:42:05.567Z,7.20
2023-04-18T09:44:32.315Z,7.70
2023-04-18T09:46:58.781Z,6.47
2023-04-18T09:49:25.279Z,6.68
2023-04-18T09:51:54.082Z,6.70
2023-04-18T09:54:23.862Z,6.80
2023-04-18T09:56:51.826Z,6.25
2023-04-18T09:59:42.648Z,6.35
2023-04-18T10:02:15.566Z,6.55
2023-04-18T10:04:46.505Z,6.47
2023-04-18T10:07:14.714Z,6.00
2023-04-18T10:09:41.472Z,6.53
2023-04-18T10:12:08.393Z,5.53
2023-04-18T10:14:37.794Z,7.40
2023-04-18T10:17:04.362Z,6.70
2023-04-18T10:19:30.866Z,5.75
2023-04-18T10:22:01.801Z,5.80
2023-04-18T10:24:47.492Z,5.70
2023-04-18T10:27:14.482Z,6.78
2023-04-18T10:29:51.784Z,5.93
2023-04-18T10:32:22.155Z,5.20
2023-04-18T10:34:49.335Z,5.90
2023-04-18T10:37:15.834Z,6.40
2023-04-18T10:40:00.540Z,5.80
2023-04-18T10:42:45.526Z,5.88
2023-04-18T10:45:19.599Z,7.57
2023-04-18T10:47:46.237Z,5.72
2023-04-18T10:50:13.109Z,6.13
2023-04-18T10:52:39.762Z,5.60
2023-04-18T10:55:17.230Z,6.15
2023-04-18T10:57:46.325Z,6.10
2023-04-18T11:00:16.219Z,7.13
2023-04-18T11:03:09.255Z,5.85
2023-04-18T11:05:35.863Z,5.65
2023-04-18T11:08:02.940Z,5.28
2023-04-18T11:10:29.519Z,5.13
2023-04-18T11:12:56.068Z,4.80
2023-04-18T11:15:24.538Z,5.05
2023-04-18T11:18:02.509Z,4.78
2023-04-18T11:20:40.016Z,4.78
2023-04-18T11:23:16.675Z,5.32
2023-04-18T11:25:43.283Z,4.57
2023-04-18T11:28:09.761Z,5.18
2023-04-18T11:30:38.319Z,5.63
2023-04-18T11:33:09.317Z,5.55
2023-04-18T11:35:44.047Z,5.63
2023-04-18T11:38:14.385Z,5.43
2023-04-18T11:40:48.693Z,5.13
2023-04-18T11:43:21.369Z,5.63
2023-04-18T11:45:53.142Z,5.40
2023-04-18T11:48:19.727Z,5.60
2023-04-18T11:50:46.177Z,5.57
2023-04-18T11:53:12.644Z,6.45
2023-04-18T11:55:39.197Z,5.05
2023-04-18T11:58:05.759Z,5.95
2023-04-18T12:00:36.891Z,5.20
2023-04-18T12:03:05.888Z,6.05
2023-04-18T12:05:34.910Z,5.32
2023-04-18T12:08:12.793Z,5.65
2023-04-18T12:10:50.492Z,5.30
2023-04-18T12:13:17.832Z,5.35
2023-04-18T12:15:46.583Z,5.90
2023-04-18T12:18:14.596Z,5.05
2023-04-18T12:20:46.566Z,5.30
2023-04-18T12:23:28.750Z,5.90
2023-04-18T12:26:02.940Z,5.05
2023-04-18T12:28:30.752Z,5.50
2023-04-18T12:30:57.576Z,5.63
2023-04-18T12:33:24.587Z,5.45
2023-04-18T12:35:52.224Z,5.82
2023-04-18T12:38:23.390Z,5.85
2023-04-18T12:40:51.270Z,5.95
2023-04-18T12:43:18.747Z,5.70
2023-04-18T12:45:46.254Z,4.90
2023-04-18T12:48:13.127Z,5.28
2023-04-18T12:50:39.609Z,5.25
2023-04-18T12:53:06.109Z,4.85
2023-04-18T12:55:32.805Z,5.70
2023-04-18T12:57:59.491Z,5.15
2023-04-18T13:00:28.258Z,5.40
2023-04-18T13:02:55.079Z,4.95
2023-04-18T13:05:24.915Z,4.80
2023-04-18T13:07:54.079Z,4.63
2023-04-18T13:10:25.391Z,5.10
2023-04-18T13:12:52.717Z,5.07
2023-04-18T13:15:19.281Z,5.47
2023-04-18T13:17:45.817Z,5.43
2023-04-18T13:20:12.698Z,5.68
2023-04-18T13:22:40.545Z,6.00
2023-04-18T13:25:08.008Z,5.90
2023-04-18T13:27:34.493Z,5.60
2023-04-18T13:30:00.969Z,5.63
2023-04-18T13:32:27.450Z,6.05
2023-04-18T13:34:54.022Z,5.72
2023-04-18T13:37:20.543Z,5.40
2023-04-18T13:39:47.071Z,5.32
2023-04-18T13:42:15.959Z,6.35
2023-04-18T13:44:42.747Z,5.72
2023-04-18T13:47:09.271Z,4.90
2023-04-18T13:49:36.070Z,5.60
2023-04-18T13:52:03.701Z,5.03
2023-04-18T13:54:32.072Z,5.18
2023-04-18T13:57:00.852Z,5.35
2023-04-18T13:59:27.531Z,5.05
2023-04-18T14:01:55.097Z,5.10
2023-04-18T14:04:22.513Z,5.20
2023-04-18T14:06:49.909Z,5.22
2023-04-18T14:09:17.296Z,5.13
2023-04-18T14:11:45.223Z,4.35
2023-04-18T14:14:11.790Z,4.15
2023-04-18T14:16:38.342Z,4.93
2023-04-18T14:19:04.902Z,4.50
2023-04-18T14:21:31.487Z,4.22
2023-04-18T14:23:57.988Z,5.03
2023-04-18T14:26:24.563Z,5.40
2023-04-18T14:28:51.403Z,4.82
2023-04-18T14:31:17.947Z,4.00
2023-04-18T14:33:44.543Z,4.28
2023-04-18T14:36:11.062Z,5.15
2023-04-18T14:38:37.530Z,4.93
2023-04-18T14:41:04.612Z,4.50
2023-04-18T14:43:31.134Z,5.35
2023-04-18T14:45:58.983Z,5.15
2023-04-18T14:48:26.350Z,4.50
2023-04-18T14:50:59.663Z,4.60
2023-04-18T14:53:26.545Z,4.57
2023-04-18T14:55:53.051Z,4.57
2023-04-18T14:58:19.752Z,4.72
2023-04-18T15:00:46.279Z,4.22
2023-04-18T15:03:12.882Z,4.28
2023-04-18T15:05:39.467Z,4.30
2023-04-18T15:08:05.989Z,4.22
2023-04-18T15:10:32.427Z,4.40
2023-04-18T15:12:59.798Z,4.68
2023-04-18T15:15:26.322Z,4.30
2023-04-18T15:17:52.814Z,4.10
2023-04-18T15:20:20.758Z,4.35
2023-04-18T15:22:48.331Z,4.70
2023-04-18T15:25:14.813Z,4.43
2023-04-18T15:27:41.396Z,5.95
2023-04-18T15:30:10.015Z,4.22
2023-04-18T15:32:36.511Z,5.00
2023-04-18T15:35:03.219Z,4.90
2023-04-18T15:37:30.344Z,5.75
2023-04-18T15:39:57.086Z,5.07
2023-04-18T15:42:23.644Z,4.80
2023-04-18T15:44:50.110Z,5.32
2023-04-18T15:47:16.691Z,5.95
2023-04-18T15:49:43.165Z,5.35
2023-04-18T15:52:09.730Z,6.05
2023-04-18T15:54:40.320Z,5.50
2023-04-18T15:57:06.933Z,5.80
2023-04-18T15:59:33.394Z,5.68
2023-04-18T16:02:00.026Z,5.47
2023-04-18T16:04:26.563Z,5.32
2023-04-18T16:06:53.092Z,5.90
2023-04-18T16:09:19.534Z,6.35
2023-04-18T16:11:46.046Z,5.90
2023-04-18T16:14:12.644Z,6.22
2023-04-18T16:16:39.166Z,5.40
2023-04-18T16:19:05.649Z,6.25
2023-04-18T16:21:32.233Z,6.07
2023-04-18T16:23:59.654Z,5.35
2023-04-18T16:26:26.191Z,5.68
2023-04-18T16:28:52.689Z,5.70
2023-04-18T16:31:19.298Z,4.72
2023-04-18T16:33:45.799Z,5.43
2023-04-18T16:36:12.330Z,5.10
2023-04-18T16:38:38.791Z,5.07
2023-04-18T16:41:05.373Z,5.40
2023-04-18T16:43:31.828Z,5.38
2023-04-18T16:45:58.307Z,4.60
2023-04-18T16:48:25.723Z,4.90
2023-04-18T16:50:52.265Z,4.45
2023-04-18T16:53:18.760Z,4.88
2023-04-18T16:55:45.304Z,5.20
2023-04-18T16:58:11.764Z,6.22
2023-04-18T17:00:38.664Z,5.10
2023-04-18T17:03:05.352Z,5.18
2023-04-18T17:05:31.958Z,5.30
2023-04-18T17:07:58.543Z,5.50
2023-04-18T17:10:25.221Z,5.53
2023-04-18T17:12:51.871Z,5.75
2023-04-18T17:15:18.778Z,5.93
2023-04-18T17:17:45.594Z,5.90
2023-04-18T17:20:12.120Z,5.93
2023-04-18T17:22:38.613Z,5.85
2023-04-18T17:25:05.659Z,6.18
2023-04-18T17:27:32.232Z,6.32
2023-04-18T17:29:58.708Z,6.20
2023-04-18T17:32:25.261Z,6.47
2023-04-18T17:34:51.756Z,6.80
2023-04-18T17:37:18.242Z,6.53
2023-04-18T17:39:44.694Z,6.97
2023-04-18T17:42:11.391Z,6.55
2023-04-18T17:44:37.893Z,7.13
2023-04-18T17:47:04.388Z,7.15
2023-04-18T17:49:30.892Z,6.32
2023-04-18T17:51:57.380Z,6.65
2023-04-18T17:54:23.848Z,6.32
2023-04-18T17:56:50.317Z,7.15
2023-04-18T17:59:16.815Z,6.97
2023-04-18T18:01:43.464Z,6.90
2023-04-18T18:04:10.146Z,7.10
2023-04-18T18:06:36.725Z,7.22
2023-04-18T18:09:03.313Z,7.35
2023-04-18T18:11:29.849Z,7.22
2023-04-18T18:13:56.274Z,9.05
2023-04-18T18:16:23.774Z,8.05
2023-04-18T18:18:50.814Z,6.93
2023-04-18T18:21:17.907Z,7.65
2023-04-18T18:23:44.385Z,7.25
2023-04-18T18:26:11.676Z,7.25
2023-04-18T18:28:38.182Z,7.93
2023-04-18T18:31:04.813Z,8.40
2023-04-18T18:33:31.364Z,7.18
2023-04-18T18:35:58.642Z,8.07
2023-04-18T18:38:25.213Z,7.82
2023-04-18T18:40:51.804Z,8.18
2023-04-18T18:43:18.250Z,7.90
2023-04-18T18:45:44.771Z,8.27
2023-04-18T18:48:11.273Z,8.40
2023-04-18T18:50:37.785Z,9.45
2023-04-18T18:53:04.303Z,7.97
2023-04-18T18:55:30.826Z,8.85
2023-04-18T18:57:57.269Z,8.73
2023-04-18T19:00:23.874Z,9.07
2023-04-18T19:02:50.735Z,8.27
2023-04-18T19:05:17.276Z,8.80
2023-04-18T19:07:43.690Z,8.90
2023-04-18T19:10:10.758Z,8.57
2023-04-18T19:12:37.936Z,8.07
2023-04-18T19:15:05.263Z,8.60
2023-04-18T19:17:31.857Z,8.52
2023-04-18T19:19:58.354Z,8.80
2023-04-18T19:22:24.994Z,8.15
2023-04-18T19:24:51.472Z,8.90
2023-04-18T19:27:18.106Z,9.25
2023-04-18T19:29:44.870Z,8.35
2023-04-18T19:32:11.348Z,8.35
2023-04-18T19:34:38.271Z,7.80
2023-04-18T19:37:07.533Z,8.93
2023-04-18T19:39:34.275Z,9.02
2023-04-18T19:42:00.768Z,8.18
2023-04-18T19:44:27.313Z,8.98
2023-04-18T19:46:53.942Z,8.88
2023-04-18T19:49:20.573Z,8.95
2023-04-18T19:51:47.047Z,8.77
2023-04-18T19:54:13.528Z,8.25
2023-04-18T19:56:40.253Z,7.97
2023-04-18T19:59:06.906Z,8.18
2023-04-18T20:01:33.431Z,9.43
2023-04-18T20:04:00.259Z,7.93
2023-04-18T20:06:27.211Z,7.97
2023-04-18T20:08:53.818Z,7.88
2023-04-18T20:11:20.386Z,7.68
2023-04-18T20:13:46.933Z,8.45
2023-04-18T20:16:13.594Z,7.68
2023-04-18T20:18:41.039Z,7.80
2023-04-18T20:21:09.602Z,8.20
2023-04-18T20:23:37.156Z,7.47
2023-04-18T20:26:04.080Z,8.00
2023-04-18T20:28:31.468Z,7.93
2023-04-18T20:30:57.976Z,8.02
2023-04-18T20:33:24.609Z,8.60
2023-04-18T20:35:51.067Z,8.27
2023-04-18T20:38:17.561Z,7.88
2023-04-18T20:40:44.055Z,8.60
2023-04-18T20:43:10.841Z,8.48
2023-04-18T20:45:37.388Z,8.30
2023-04-18T20:48:04.598Z,7.93
2023-04-18T20:50:31.050Z,7.88
2023-04-18T20:52:58.228Z,8.45
2023-04-18T20:55:24.685Z,8.50
2023-04-18T20:57:51.235Z,7.85
2023-04-18T21:00:17.785Z,8.68
2023-04-18T21:02:44.830Z,7.75
2023-04-18T21:05:11.532Z,9.02
2023-04-18T21:07:37.994Z,9.32
2023-04-18T21:10:04.730Z,8.43
2023-04-18T21:12:31.233Z,9.27
2023-04-18T21:14:57.753Z,8.82
2023-04-18T21:17:24.223Z,10.23
2023-04-18T21:19:51.034Z,8.82
2023-04-18T21:22:17.669Z,9.38
2023-04-18T21:24:44.187Z,9.15
2023-04-18T21:27:10.665Z,9.02
2023-04-18T21:29:37.254Z,9.07
2023-04-18T21:32:03.930Z,9.05
2023-04-18T21:34:30.362Z,9.68
2023-04-18T21:36:56.845Z,10.43
2023-04-18T21:39:23.453Z,9.50
2023-04-18T21:41:49.915Z,10.45
2023-04-18T21:44:16.621Z,10.25
2023-04-18T21:46:43.596Z,9.07
2023-04-18T21:49:10.184Z,9.27
2023-04-18T21:51:36.646Z,10.10
2023-04-18T21:54:03.677Z,10.23
2023-04-18T21:56:30.183Z,10.10
2023-04-18T21:58:56.624Z,10.75
2023-04-18T22:01:23.100Z,11.27
2023-04-18T22:03:49.853Z,10.18
2023-04-18T22:06:16.518Z,11.25
2023-04-18T22:08:43.030Z,10.50
2023-04-18T22:11:09.492Z,10.63
2023-04-18T22:13:35.965Z,9.77
2023-04-18T22:16:02.763Z,11.15
2023-04-18T22:18:29.611Z,11.90
2023-04-18T22:20:56.217Z,10.43
2023-04-18T22:23:23.072Z,10.27
2023-04-18T22:25:49.552Z,10.60
2023-04-18T22:28:16.071Z,11.57
2023-04-18T22:30:42.574Z,10.05
2023-04-18T22:33:09.178Z,10.73
2023-04-18T22:35:35.676Z,9.48
2023-04-18T22:38:02.227Z,10.40
2023-04-18T22:40:28.761Z,11.10
2023-04-18T22:42:55.275Z,10.70
2023-04-18T22:45:21.739Z,10.38
2023-04-18T22:47:48.442Z,10.38
2023-04-18T22:50:15.060Z,10.77
2023-04-18T22:52:41.682Z,9.75
2023-04-18T22:55:08.922Z,10.68
2023-04-18T22:57:35.452Z,11.77
2023-04-18T23:00:01.998Z,10.88
2023-04-18T23:02:28.672Z,11.18
2023-04-18T23:04:56.974Z,11.05
2023-04-18T23:07:23.404Z,11.02
2023-04-18T23:09:49.886Z,11.10
2023-04-18T23:12:16.319Z,11.63
2023-04-18T23:14:42.802Z,10.98
2023-04-18T23:17:09.260Z,12.20
2023-04-18T23:19:35.803Z,10.77
2023-04-18T23:22:02.258Z,10.30
2023-04-18T23:24:30.298Z,10.70
2023-04-18T23:26:56.826Z,11.88
2023-04-18T23:29:23.553Z,12.00
2023-04-18T23:31:50.039Z,11.77
2023-04-18T23:34:16.783Z,11.50
2023-04-18T23:36:43.403Z,12.95
2023-04-18T23:39:09.884Z,11.60
2023-04-18T23:41:36.333Z,11.88
2023-04-18T23:44:02.864Z,11.32
2023-04-18T23:46:29.341Z,12.32
2023-04-18T23:48:55.846Z,11.40
2023-04-18T23:51:22.339Z,11.35
2023-04-18T23:53:48.784Z,11.90
2023-04-18T23:56:15.266Z,12.05
2023-04-18T23:58:41.786Z,11.50
